Time;durP1;ratioP1;P1;durP2;ratioP2;P2;SDS_P1;SDS_P2;PMS_P1;PMS_P2;Temp;Humidity;BMP_temperature;BMP_pressure;BME280_temperature;BME280_humidity;BME280_pressure;Samples;Min_cycle;Max_cycle;Signal;HPM_P1;HPM_P2
2022/05/24 00:00:28;;;;;;;10.70;4.78;;;15.00;99.90;;;;;;5030536;28;20057;-43
2022/05/24 00:02:56;;;;;;;10.15;4.32;;;15.00;99.90;;;;;;5030709;28;20107;-43
2022/05/24 00:05:23;;;;;;;7.63;4.38;;;15.00;99.90;;;;;;5031901;28;20477;-43
2022/05/24 00:07:50;;;;;;;10.60;5.15;;;15.00;99.90;;;;;;5032616;28;20054;-43
2022/05/24 00:10:18;;;;;;;9.82;5.05;;;15.00;99.90;;;;;;5032678;28;20049;-43
2022/05/24 00:12:45;;;;;;;9.02;4.57;;;14.90;99.90;;;;;;5054479;28;20055;-44
2022/05/24 00:15:24;;;;;;;7.88;4.80;;;14.90;99.90;;;;;;5054711;28;20044;-43
2022/05/24 00:17:52;;;;;;;8.48;4.20;;;14.90;99.90;;;;;;5071002;28;20480;-43
2022/05/24 00:20:20;;;;;;;7.28;3.65;;;14.90;99.90;;;;;;5054978;28;20055;-43
2022/05/24 00:22:47;;;;;;;5.63;3.58;;;14.90;99.90;;;;;;5051686;28;20045;-43
2022/05/24 00:25:14;;;;;;;7.78;3.50;;;14.90;99.90;;;;;;5068105;28;20123;-43
2022/05/24 00:27:41;;;;;;;6.97;3.25;;;14.90;99.90;;;;;;5069960;28;20056;-43
2022/05/24 00:30:09;;;;;;;6.25;3.67;;;14.90;99.90;;;;;;5069230;28;20506;-43
2022/05/24 00:32:36;;;;;;;8.02;3.78;;;14.90;99.90;;;;;;5071396;28;20044;-43
2022/05/24 00:35:02;;;;;;;5.18;2.88;;;14.90;99.90;;;;;;5069405;28;20063;-43
2022/05/24 00:37:32;;;;;;;7.15;3.65;;;14.80;99.90;;;;;;5069811;28;20481;-43
2022/05/24 00:39:58;;;;;;;5.63;3.00;;;14.80;99.90;;;;;;5052986;28;20507;-43
2022/05/24 00:42:27;;;;;;;6.65;3.60;;;14.80;99.90;;;;;;5071371;28;20408;-43
2022/05/24 00:44:55;;;;;;;6.40;3.70;;;14.80;99.90;;;;;;5069232;28;20060;-43
2022/05/24 00:47:24;;;;;;;6.38;3.00;;;14.80;99.90;;;;;;5069258;28;20047;-44
2022/05/24 00:49:54;;;;;;;5.53;3.10;;;14.80;99.90;;;;;;5070620;28;20056;-45
2022/05/24 00:52:23;;;;;;;6.18;2.80;;;14.80;99.90;;;;;;5054198;28;20143;-43
2022/05/24 00:54:51;;;;;;;6.45;2.75;;;14.80;99.90;;;;;;5072068;28;20063;-43
2022/05/24 00:57:21;;;;;;;6.25;2.88;;;14.80;99.90;;;;;;5051787;28;20401;-44
2022/05/24 00:59:49;;;;;;;5.40;2.55;;;14.80;99.90;;;;;;5050730;28;20075;-44
2022/05/24 01:02:16;;;;;;;6.72;2.90;;;14.80;99.90;;;;;;5069472;28;20067;-44
2022/05/24 01:04:43;;;;;;;6.50;3.58;;;14.80;99.90;;;;;;5052804;28;20083;-44
2022/05/24 01:07:10;;;;;;;6.75;3.70;;;14.80;99.90;;;;;;5069936;28;21461;-44
2022/05/24 01:09:41;;;;;;;4.38;3.10;;;14.70;99.90;;;;;;5053590;28;20048;-44
2022/05/24 01:12:12;;;;;;;8.40;4.28;;;14.70;99.90;;;;;;5066171;28;20055;-44
2022/05/24 01:14:39;;;;;;;11.38;5.40;;;14.70;99.90;;;;;;5053863;28;20060;-44
2022/05/24 01:17:06;;;;;;;8.63;5.38;;;14.70;99.90;;;;;;5070798;28;20049;-44
2022/05/24 01:19:35;;;;;;;8.85;4.63;;;14.60;99.90;;;;;;5070789;28;20424;-43
2022/05/24 01:22:12;;;;;;;11.38;6.40;;;14.60;99.90;;;;;;5052192;28;20052;-43
2022/05/24 01:24:41;;;;;;;7.57;4.80;;;14.50;99.90;;;;;;5054875;28;20054;-43
2022/05/24 01:27:09;;;;;;;14.77;7.03;;;14.50;99.90;;;;;;5057031;28;20052;-43
2022/05/24 01:29:36;;;;;;;12.38;9.02;;;14.40;99.90;;;;;;5075167;28;20051;-43
2022/05/24 01:37:31;;;;;;;15.65;10.48;;;14.40;99.90;;;;;;5048621;28;20132;-43
2022/05/24 01:39:58;;;;;;;15.23;11.63;;;14.40;99.90;;;;;;5057266;28;20049;-43
2022/05/24 01:42:26;;;;;;;16.13;11.25;;;14.40;99.90;;;;;;5049376;28;20051;-43
2022/05/24 01:44:54;;;;;;;15.57;11.73;;;14.40;99.90;;;;;;5056317;28;20045;-43
2022/05/24 01:47:22;;;;;;;18.13;11.05;;;14.30;99.90;;;;;;5073782;28;20060;-43
2022/05/24 01:49:51;;;;;;;18.48;11.02;;;14.30;99.90;;;;;;5055611;28;20055;-43
2022/05/24 01:52:19;;;;;;;16.30;8.90;;;14.30;99.90;;;;;;5054791;28;20044;-43
2022/05/24 01:54:48;;;;;;;18.90;12.50;;;14.20;99.90;;;;;;5074725;28;20051;-43
2022/05/24 01:57:15;;;;;;;14.27;9.50;;;14.20;99.90;;;;;;5057142;28;20058;-43
2022/05/24 01:59:44;;;;;;;18.17;10.98;;;14.20;99.90;;;;;;5071601;28;20128;-42
2022/05/24 02:02:10;;;;;;;13.90;9.65;;;14.20;99.90;;;;;;5054985;28;20036;-43
2022/05/24 02:04:38;;;;;;;18.92;12.02;;;14.20;99.90;;;;;;5068037;28;20052;-43
2022/05/24 02:07:06;;;;;;;16.33;12.48;;;14.20;99.90;;;;;;5073634;28;20051;-43
2022/05/24 02:09:33;;;;;;;19.50;12.68;;;14.20;99.90;;;;;;5072941;28;20412;-43
2022/05/24 02:12:02;;;;;;;15.32;10.95;;;14.10;99.90;;;;;;5051404;28;20052;-43
2022/05/24 02:14:30;;;;;;;18.85;13.05;;;14.10;99.90;;;;;;5073086;28;20044;-43
2022/05/24 02:17:00;;;;;;;18.77;12.77;;;14.10;99.90;;;;;;5072516;28;20072;-43
2022/05/24 02:19:28;;;;;;;16.90;13.13;;;14.10;99.90;;;;;;5050784;28;20041;-43
2022/05/24 02:21:56;;;;;;;16.63;12.43;;;14.10;99.90;;;;;;5065618;28;20060;-43
2022/05/24 02:24:24;;;;;;;21.80;14.60;;;14.10;99.90;;;;;;5055238;28;20053;-43
2022/05/24 02:26:52;;;;;;;17.77;13.70;;;14.10;99.90;;;;;;5063275;28;20131;-43
2022/05/24 02:29:19;;;;;;;19.90;15.00;;;14.10;99.90;;;;;;5055194;28;20144;-43
2022/05/24 02:31:45;;;;;;;24.23;16.88;;;14.10;99.90;;;;;;5055993;28;20052;-43
2022/05/24 02:34:14;;;;;;;26.60;18.77;;;14.00;99.90;;;;;;5055803;28;20134;-43
2022/05/24 02:36:41;;;;;;;22.52;16.00;;;14.00;99.90;;;;;;5071090;28;20492;-43
2022/05/24 02:39:08;;;;;;;27.63;19.85;;;14.00;99.90;;;;;;5055679;28;20403;-43
2022/05/24 02:41:34;;;;;;;32.25;22.63;;;14.00;99.90;;;;;;5071910;28;20551;-43
2022/05/24 02:44:02;;;;;;;34.22;24.10;;;14.00;99.90;;;;;;5056509;28;20057;-44
2022/05/24 02:46:30;;;;;;;31.42;24.08;;;14.00;99.90;;;;;;5074210;28;20048;-44
2022/05/24 02:48:57;;;;;;;25.10;20.40;;;14.00;99.90;;;;;;5054175;28;20056;-44
2022/05/24 02:51:26;;;;;;;36.15;26.13;;;14.00;99.90;;;;;;5069627;28;20131;-43
2022/05/24 02:53:53;;;;;;;35.75;24.67;;;14.10;99.90;;;;;;5074298;28;20049;-43
2022/05/24 02:56:19;;;;;;;35.75;26.40;;;14.00;99.90;;;;;;5073952;28;20059;-44
2022/05/24 02:58:46;;;;;;;31.92;25.48;;;14.10;99.90;;;;;;5055580;28;20054;-43
2022/05/24 03:01:15;;;;;;;37.28;26.98;;;14.10;99.90;;;;;;5055824;28;20143;-44
2022/05/24 03:03:42;;;;;;;35.38;25.15;;;14.10;99.90;;;;;;5072973;28;20514;-43
2022/05/24 03:06:09;;;;;;;30.20;22.08;;;14.20;99.90;;;;;;5073922;28;20162;-44
2022/05/24 03:11:21;;;;;;;37.70;27.92;;;14.20;99.90;;;;;;5045327;28;20057;-44
2022/05/24 03:16:32;;;;;;;36.22;27.52;;;14.20;99.90;;;;;;5071420;28;20441;-43
2022/05/24 03:18:59;;;;;;;40.72;29.27;;;14.20;99.90;;;;;;5055051;28;20052;-44
2022/05/24 03:21:25;;;;;;;37.60;28.02;;;14.30;99.90;;;;;;5054823;28;20055;-43
2022/05/24 03:23:53;;;;;;;38.38;29.23;;;14.30;99.90;;;;;;5055365;28;20131;-43
2022/05/24 03:26:20;;;;;;;41.72;29.45;;;14.30;99.90;;;;;;5053411;28;20048;-44
2022/05/24 03:28:48;;;;;;;37.80;29.13;;;14.30;99.90;;;;;;5071632;28;20056;-43
2022/05/24 03:31:15;;;;;;;33.25;25.60;;;14.30;99.90;;;;;;5070889;28;20416;-44
2022/05/24 03:33:41;;;;;;;36.05;28.52;;;14.30;99.90;;;;;;5039997;28;20064;-44
2022/05/24 03:36:08;;;;;;;37.65;28.70;;;14.30;99.90;;;;;;5068756;28;20515;-43
2022/05/24 03:38:35;;;;;;;36.63;26.42;;;14.30;99.90;;;;;;5054241;28;20088;-44
2022/05/24 03:41:03;;;;;;;40.65;28.88;;;14.40;99.90;;;;;;5072753;28;20044;-43
2022/05/24 03:43:30;;;;;;;31.60;24.50;;;14.40;99.90;;;;;;5071281;28;20407;-44
2022/05/24 03:46:01;;;;;;;36.97;26.90;;;14.40;99.90;;;;;;5050390;28;20056;-44
2022/05/24 03:48:28;;;;;;;34.28;26.02;;;14.40;99.90;;;;;;5069778;28;20051;-43
2022/05/24 03:50:56;;;;;;;33.95;25.17;;;14.40;99.90;;;;;;5046950;28;20441;-43
2022/05/24 03:53:23;;;;;;;32.72;23.88;;;14.40;99.90;;;;;;5050972;28;20488;-43
2022/05/24 03:55:49;;;;;;;29.05;23.35;;;14.40;99.90;;;;;;5069985;28;20059;-43
2022/05/24 03:58:17;;;;;;;30.27;24.40;;;14.40;99.90;;;;;;5052358;28;20484;-43
2022/05/24 04:00:45;;;;;;;27.10;23.02;;;14.40;99.90;;;;;;5070222;28;20051;-44
2022/05/24 04:03:12;;;;;;;28.17;21.85;;;14.40;99.90;;;;;;5070991;28;20094;-44
2022/05/24 04:05:39;;;;;;;27.27;22.27;;;14.40;99.90;;;;;;5072542;28;20052;-43
2022/05/24 04:08:06;;;;;;;26.48;21.38;;;14.40;99.90;;;;;;5071256;28;20055;-43
2022/05/24 04:10:34;;;;;;;28.10;19.33;;;14.50;99.90;;;;;;5067611;28;20059;-44
2022/05/24 04:13:01;;;;;;;30.05;21.10;;;14.50;99.90;;;;;;5069214;28;20056;-43
2022/05/24 04:15:29;;;;;;;28.75;21.23;;;14.50;99.90;;;;;;5053666;28;20135;-44
2022/05/24 04:17:56;;;;;;;29.00;21.23;;;14.50;99.90;;;;;;5069021;28;20488;-43
2022/05/24 04:20:24;;;;;;;33.80;21.13;;;14.50;99.90;;;;;;5064595;28;20053;-44
2022/05/24 04:22:52;;;;;;;25.25;20.35;;;14.50;99.90;;;;;;5058460;28;20052;-44
2022/05/24 04:25:19;;;;;;;25.55;18.83;;;14.50;99.90;;;;;;5035034;28;20057;-43
2022/05/24 04:27:45;;;;;;;32.78;22.25;;;14.50;99.90;;;;;;5048376;28;20136;-44
2022/05/24 04:30:13;;;;;;;26.70;19.90;;;14.50;99.90;;;;;;5061402;28;20044;-43
2022/05/24 04:32:41;;;;;;;27.40;20.67;;;14.50;99.90;;;;;;5044027;28;20048;-44
2022/05/24 04:35:08;;;;;;;34.88;22.23;;;14.60;99.90;;;;;;5069398;28;20410;-43
2022/05/24 04:37:35;;;;;;;31.40;22.33;;;14.50;99.90;;;;;;5062957;28;20059;-43
2022/05/24 04:40:02;;;;;;;36.65;23.55;;;14.60;99.90;;;;;;5047998;28;20064;-43
2022/05/24 04:42:28;;;;;;;34.50;23.80;;;14.50;99.90;;;;;;5054265;28;20124;-43
2022/05/24 04:44:56;;;;;;;37.63;23.92;;;14.60;99.90;;;;;;5062251;28;20128;-44
2022/05/24 04:47:23;;;;;;;38.22;26.05;;;14.60;99.90;;;;;;5071838;28;20055;-44
2022/05/24 04:49:54;;;;;;;36.58;25.20;;;14.60;99.90;;;;;;5071962;28;20051;-44
2022/05/24 04:52:21;;;;;;;36.70;26.20;;;14.60;99.90;;;;;;5054389;28;20055;-43
2022/05/24 04:54:48;;;;;;;33.45;25.63;;;14.50;99.90;;;;;;5070080;28;20098;-43
2022/05/24 04:57:15;;;;;;;33.75;24.63;;;14.50;99.90;;;;;;5068304;28;20142;-43
2022/05/24 04:59:42;;;;;;;41.38;27.40;;;14.50;99.90;;;;;;5055030;28;20136;-42
2022/05/24 05:02:08;;;;;;;41.45;27.17;;;14.50;99.90;;;;;;5055218;28;20501;-42
2022/05/24 05:04:35;;;;;;;37.72;25.92;;;14.60;99.90;;;;;;5067633;28;20052;-42
2022/05/24 05:07:04;;;;;;;39.35;27.73;;;14.50;99.90;;;;;;5073306;28;20048;-43
2022/05/24 05:09:35;;;;;;;37.50;26.15;;;14.50;99.90;;;;;;5071685;28;20041;-43
2022/05/24 05:12:03;;;;;;;36.70;26.60;;;14.50;99.90;;;;;;5070850;28;20564;-43
2022/05/24 05:14:30;;;;;;;45.38;26.98;;;14.50;99.90;;;;;;5063386;28;20079;-43
2022/05/24 05:16:56;;;;;;;38.58;25.67;;;14.50;99.90;;;;;;5049116;28;20131;-43
2022/05/24 05:19:23;;;;;;;39.15;25.30;;;14.50;99.90;;;;;;5077147;28;20141;-43
2022/05/24 05:21:50;;;;;;;40.35;26.05;;;14.50;99.90;;;;;;5081463;28;20408;-43
2022/05/24 05:24:18;;;;;;;34.28;24.30;;;14.50;99.90;;;;;;5048077;28;20067;-42
2022/05/24 05:26:44;;;;;;;34.22;23.05;;;14.50;99.90;;;;;;5055052;28;20051;-44
2022/05/24 05:29:11;;;;;;;35.55;22.38;;;14.40;99.90;;;;;;5053931;28;20049;-43
2022/05/24 05:31:37;;;;;;;33.63;21.70;;;14.40;99.90;;;;;;5054216;28;20049;-44
2022/05/24 05:34:04;;;;;;;30.50;20.02;;;14.30;99.90;;;;;;5056021;28;20059;-44
2022/05/24 05:36:31;;;;;;;35.13;21.20;;;14.30;99.90;;;;;;5054841;28;20465;-44
2022/05/24 05:38:58;;;;;;;34.00;19.63;;;14.40;99.90;;;;;;5037455;28;20436;-43
2022/05/24 05:41:27;;;;;;;32.97;20.65;;;14.40;99.90;;;;;;5055503;28;20055;-44
2022/05/24 05:43:54;;;;;;;28.98;20.17;;;14.40;99.90;;;;;;5074427;28;20044;-44
2022/05/24 05:46:21;;;;;;;29.48;19.17;;;14.40;99.90;;;;;;5074621;28;20047;-43
2022/05/24 05:48:48;;;;;;;27.25;18.20;;;14.40;99.90;;;;;;5057020;28;20061;-43
2022/05/24 05:51:15;;;;;;;29.98;17.77;;;14.40;99.90;;;;;;5074620;28;20554;-44
2022/05/24 05:53:42;;;;;;;27.45;18.67;;;14.40;99.90;;;;;;5035647;28;20478;-44
2022/05/24 05:56:09;;;;;;;26.67;17.52;;;14.40;99.90;;;;;;5036805;28;20049;-43
2022/05/24 05:58:37;;;;;;;25.85;17.90;;;14.40;99.90;;;;;;5052883;28;20049;-43
2022/05/24 06:01:04;;;;;;;29.42;18.15;;;14.40;99.90;;;;;;5054664;28;20136;-43
2022/05/24 06:03:31;;;;;;;31.42;18.20;;;14.40;99.90;;;;;;5053382;28;20079;-43
2022/05/24 06:06:00;;;;;;;28.50;17.02;;;14.40;99.90;;;;;;5053885;28;20041;-43
2022/05/24 06:08:26;;;;;;;27.48;17.55;;;14.40;99.90;;;;;;5054323;28;20056;-43
2022/05/24 06:10:53;;;;;;;30.38;17.52;;;14.50;99.90;;;;;;5059957;28;20496;-43
2022/05/24 06:13:20;;;;;;;26.48;16.88;;;14.50;99.90;;;;;;5073166;28;20067;-42
2022/05/24 06:15:50;;;;;;;27.65;16.15;;;14.50;99.90;;;;;;5074078;28;20052;-43
2022/05/24 06:18:16;;;;;;;28.50;16.83;;;14.60;99.90;;;;;;5056606;28;20049;-43
2022/05/24 06:20:43;;;;;;;31.27;17.05;;;14.60;99.90;;;;;;5050092;28;20048;-44
2022/05/24 06:23:10;;;;;;;26.60;15.10;;;14.60;99.90;;;;;;5052371;28;20055;-43
2022/05/24 06:25:36;;;;;;;26.25;15.75;;;14.70;99.90;;;;;;5053348;28;20045;-43
2022/05/24 06:28:03;;;;;;;25.88;16.65;;;14.70;99.90;;;;;;5054014;28;20041;-43
2022/05/24 06:30:30;;;;;;;22.95;15.55;;;14.70;99.90;;;;;;5054243;28;20067;-43
2022/05/24 06:32:58;;;;;;;28.30;16.88;;;14.70;99.90;;;;;;5053807;28;20099;-43
2022/05/24 06:35:25;;;;;;;22.70;15.25;;;14.70;99.90;;;;;;5053410;28;20124;-43
2022/05/24 06:37:53;;;;;;;24.23;16.50;;;14.70;99.90;;;;;;5054104;28;20060;-44
2022/05/24 06:40:20;;;;;;;23.67;15.55;;;14.70;99.90;;;;;;5054158;28;20044;-44
2022/05/24 06:42:47;;;;;;;21.60;14.25;;;14.80;99.90;;;;;;5055322;28;20055;-44
2022/05/24 06:45:14;;;;;;;26.70;15.43;;;14.80;99.90;;;;;;5073532;28;20072;-44
2022/05/24 06:47:40;;;;;;;27.00;15.93;;;14.80;99.90;;;;;;5055818;28;20135;-44
2022/05/24 06:50:09;;;;;;;26.55;14.73;;;14.70;99.90;;;;;;5055505;28;20068;-44
2022/05/24 06:52:36;;;;;;;24.55;15.02;;;14.70;99.90;;;;;;5073304;28;20477;-43
2022/05/24 06:55:03;;;;;;;25.40;14.10;;;14.60;99.90;;;;;;5073811;28;20060;-43
2022/05/24 06:57:30;;;;;;;23.05;14.55;;;14.70;99.90;;;;;;5073576;28;20088;-43
2022/05/24 07:02:41;;;;;;;24.95;14.52;;;14.70;99.90;;;;;;5055296;28;20045;-43
2022/05/24 07:05:12;;;;;;;27.17;14.35;;;14.80;99.90;;;;;;5073246;28;20058;-43
2022/05/24 07:07:39;;;;;;;22.77;13.65;;;14.80;99.90;;;;;;5055192;28;20056;-44
2022/05/24 07:10:07;;;;;;;21.98;13.75;;;14.80;99.90;;;;;;5035461;28;20558;-43
2022/05/24 07:12:34;;;;;;;25.35;13.68;;;14.80;99.90;;;;;;5035316;28;20057;-43
2022/05/24 07:15:01;;;;;;;24.08;13.95;;;14.80;99.90;;;;;;5053023;28;20084;-42
2022/05/24 07:17:28;;;;;;;27.30;13.80;;;14.80;99.90;;;;;;5035390;28;20052;-43
2022/05/24 07:19:54;;;;;;;21.75;13.15;;;14.80;99.90;;;;;;5052954;28;20051;-43
2022/05/24 07:22:22;;;;;;;26.95;13.50;;;14.80;99.90;;;;;;5052473;28;20136;-43
2022/05/24 07:24:49;;;;;;;23.70;12.70;;;14.80;99.90;;;;;;5052884;28;20053;-43
2022/05/24 07:27:18;;;;;;;20.27;12.40;;;14.80;99.90;;;;;;5053066;28;20373;-44
2022/05/24 07:29:45;;;;;;;20.98;13.07;;;14.80;99.90;;;;;;5034981;28;20053;-43
2022/05/24 07:32:11;;;;;;;26.25;12.48;;;14.90;99.90;;;;;;5053115;28;20052;-42
2022/05/24 07:34:38;;;;;;;20.88;12.10;;;14.90;99.90;;;;;;5052829;28;20059;-44
2022/05/24 07:37:06;;;;;;;21.05;13.35;;;14.90;99.90;;;;;;5035062;28;20060;-43
2022/05/24 07:39:34;;;;;;;23.33;14.32;;;14.90;99.90;;;;;;5070269;28;20056;-42
2022/05/24 07:47:35;;;;;;;21.45;13.40;;;14.90;99.90;;;;;;5017751;28;20068;-43
2022/05/24 07:50:02;;;;;;;21.80;12.95;;;14.90;99.90;;;;;;5052612;28;20059;-42
2022/05/24 07:52:28;;;;;;;22.27;12.77;;;14.80;99.90;;;;;;5051981;28;20053;-44
2022/05/24 07:54:56;;;;;;;22.88;12.77;;;14.80;99.90;;;;;;5052124;28;20414;-43
2022/05/24 07:57:23;;;;;;;20.92;13.13;;;14.80;99.90;;;;;;5051918;28;20055;-43
2022/05/24 07:59:50;;;;;;;28.80;13.48;;;14.80;99.90;;;;;;5052467;28;20051;-43
2022/05/24 08:02:17;;;;;;;20.88;12.88;;;14.90;99.90;;;;;;5034248;28;20059;-43
2022/05/24 08:04:44;;;;;;;20.13;12.55;;;14.90;99.90;;;;;;5051708;28;20566;-44
2022/05/24 08:07:11;;;;;;;22.35;13.07;;;15.00;99.90;;;;;;5034346;28;20481;-43
2022/05/24 08:09:39;;;;;;;21.92;12.20;;;15.00;99.90;;;;;;5069952;28;20436;-43
2022/05/24 08:12:08;;;;;;;23.55;13.02;;;15.10;99.90;;;;;;5070021;28;20063;-44
2022/05/24 08:14:34;;;;;;;21.50;12.13;;;15.10;99.90;;;;;;5062656;28;20044;-43
2022/05/24 08:17:01;;;;;;;20.80;12.48;;;15.20;99.90;;;;;;5054219;28;20484;-44
2022/05/24 08:19:28;;;;;;;20.30;11.48;;;15.30;99.90;;;;;;5053704;28;20047;-43
2022/05/24 08:21:55;;;;;;;20.92;11.48;;;15.50;99.90;;;;;;5089745;28;20048;-44
2022/05/24 08:24:21;;;;;;;18.38;11.48;;;15.60;99.90;;;;;;5073802;28;20097;-44
2022/05/24 08:26:48;;;;;;;20.88;11.27;;;15.70;99.90;;;;;;5091706;28;20058;-44
2022/05/24 08:29:16;;;;;;;19.10;11.32;;;15.70;99.90;;;;;;5092221;28;20048;-44
2022/05/24 08:31:43;;;;;;;21.50;10.77;;;15.90;99.90;;;;;;5074172;28;20593;-44
2022/05/24 08:34:10;;;;;;;15.20;9.23;;;16.00;99.90;;;;;;5091772;28;20499;-44
2022/05/24 08:36:37;;;;;;;15.10;8.18;;;16.10;99.90;;;;;;5091825;28;20055;-44
2022/05/24 08:39:04;;;;;;;14.32;6.85;;;16.20;99.90;;;;;;5091484;28;20575;-43
2022/05/24 08:41:34;;;;;;;10.52;5.90;;;16.20;99.90;;;;;;5083893;28;20053;-43
2022/05/24 08:49:52;;;;;;;15.10;4.90;;;16.60;99.90;;;;;;5051849;28;20265;-44
2022/05/24 08:52:19;;;;;;;14.68;5.05;;;16.50;99.90;;;;;;5050544;28;20056;-44
2022/05/24 08:54:46;;;;;;;7.43;4.30;;;16.50;99.90;;;;;;5051597;28;20055;-44
2022/05/24 08:57:14;;;;;;;10.70;3.97;;;16.60;99.90;;;;;;5051426;28;20547;-44
2022/05/24 08:59:45;;;;;;;7.13;3.65;;;16.50;99.50;;;;;;5050727;28;20400;-44
2022/05/24 09:02:11;;;;;;;9.60;3.20;;;16.50;99.10;;;;;;5051657;28;20059;-44
2022/05/24 09:04:38;;;;;;;8.82;3.50;;;16.60;99.10;;;;;;5051441;28;20051;-43
2022/05/24 09:07:07;;;;;;;6.38;3.60;;;16.70;98.40;;;;;;5051016;28;20503;-44
2022/05/24 09:09:40;;;;;;;10.82;3.78;;;17.00;97.70;;;;;;5052809;28;20052;-43
2022/05/24 09:12:16;;;;;;;9.30;3.92;;;17.10;97.00;;;;;;5071534;28;20110;-44
2022/05/24 09:14:49;;;;;;;8.63;3.88;;;17.20;97.20;;;;;;5072126;28;20040;-44
2022/05/24 09:17:28;;;;;;;16.75;4.68;;;17.20;97.40;;;;;;5071495;28;20044;-43
2022/05/24 09:19:55;;;;;;;7.82;3.90;;;17.20;96.90;;;;;;5053819;28;20048;-43
2022/05/24 09:22:22;;;;;;;11.82;4.25;;;17.30;96.70;;;;;;5071311;28;20052;-44
2022/05/24 09:24:53;;;;;;;10.07;4.20;;;17.30;96.50;;;;;;5053746;28;20048;-44
2022/05/24 09:27:20;;;;;;;10.85;4.40;;;17.30;96.40;;;;;;5071596;28;20463;-44
2022/05/24 09:30:12;;;;;;;9.10;3.90;;;17.30;96.60;;;;;;5071119;28;20088;-43
2022/05/24 09:32:39;;;;;;;;;;;17.20;96.70;;;;;;5066038;28;20140;-44
2022/05/24 09:35:13;;;;;;;10.32;3.75;;;16.90;96.50;;;;;;5071493;28;20406;-43
2022/05/24 09:37:41;;;;;;;7.97;3.70;;;16.80;97.50;;;;;;5047078;28;20111;-43
2022/05/24 09:40:16;;;;;;;7.55;3.67;;;16.70;97.80;;;;;;5051098;28;20460;-43
2022/05/24 09:42:43;;;;;;;8.45;3.92;;;16.70;98.00;;;;;;5043521;28;20559;-43
2022/05/24 09:45:15;;;;;;;9.38;3.90;;;16.70;98.60;;;;;;5071269;28;20055;-43
2022/05/24 09:47:50;;;;;;;;;;;16.80;98.50;;;;;;5075054;28;20451;-43
2022/05/24 09:50:26;;;;;;;10.80;4.57;;;16.90;98.10;;;;;;5090604;28;19920;-43
2022/05/24 09:53:09;;;;;;;7.97;4.50;;;17.00;97.80;;;;;;5094541;28;20403;-43
2022/05/24 09:55:39;;;;;;;8.43;4.68;;;17.10;97.50;;;;;;5076964;28;20063;-42
2022/05/24 09:58:16;;;;;;;6.32;4.43;;;17.20;96.90;;;;;;5094754;28;20126;-43
2022/05/24 10:00:51;;;;;;;8.50;3.80;;;17.30;97.00;;;;;;5094627;28;20062;-43
2022/05/24 10:03:22;;;;;;;11.57;4.35;;;17.50;96.40;;;;;;5079704;28;20044;-44
2022/05/24 10:05:55;;;;;;;6.88;3.25;;;17.80;95.80;;;;;;5061126;28;20053;-44
2022/05/24 10:08:22;;;;;;;6.25;2.50;;;18.00;95.60;;;;;;5040379;28;20123;-44
2022/05/24 10:10:52;;;;;;;5.30;2.28;;;18.20;94.30;;;;;;5059564;28;20481;-43
2022/05/24 10:13:24;;;;;;;3.38;1.60;;;18.10;93.10;;;;;;5071845;28;20041;-44
2022/05/24 10:15:56;;;;;;;5.22;1.60;;;18.20;93.00;;;;;;5073578;28;20139;-43
2022/05/24 10:18:35;;;;;;;4.13;2.08;;;18.40;92.40;;;;;;5073746;28;20071;-43
2022/05/24 10:21:09;;;;;;;7.15;1.70;;;18.60;91.80;;;;;;5052413;28;20049;-43
2022/05/24 10:23:45;;;;;;;5.55;2.28;;;18.70;92.10;;;;;;5064554;28;20056;-43
2022/05/24 10:26:22;;;;;;;3.80;1.63;;;18.70;91.70;;;;;;5073432;28;20047;-43
2022/05/24 10:28:54;;;;;;;3.50;1.00;;;18.70;91.50;;;;;;5073697;28;20487;-43
2022/05/24 10:31:31;;;;;;;8.88;2.40;;;18.40;92.00;;;;;;5050803;28;20045;-44
2022/05/24 10:39:47;;;;;;;3.08;0.68;;;17.10;95.70;;;;;;5073643;28;20142;-45
2022/05/24 10:42:20;;;;;;;2.50;0.90;;;16.90;96.40;;;;;;5048640;28;20052;-45
2022/05/24 10:44:47;;;;;;;1.85;0.50;;;16.60;97.00;;;;;;5061636;28;20059;-44
2022/05/24 10:47:22;;;;;;;1.88;0.50;;;16.50;97.40;;;;;;5043284;28;20040;-45
2022/05/24 10:49:50;;;;;;;0.57;0.38;;;16.30;97.60;;;;;;5036707;28;20193;-45
2022/05/24 10:52:20;;;;;;;1.52;0.50;;;16.00;97.90;;;;;;5060658;28;20045;-45
2022/05/24 10:54:51;;;;;;;0.93;0.45;;;15.90;98.20;;;;;;5061730;28;20045;-44
2022/05/24 10:57:20;;;;;;;4.45;1.10;;;15.90;98.90;;;;;;5043533;28;20477;-44
2022/05/24 10:59:54;;;;;;;2.75;0.70;;;15.80;99.10;;;;;;5065619;28;20132;-44
2022/05/24 11:02:26;;;;;;;1.40;0.93;;;15.80;99.40;;;;;;5061525;28;20081;-45
2022/05/24 11:04:56;;;;;;;3.13;1.27;;;15.70;99.80;;;;;;5059040;28;20055;-45
2022/05/24 11:07:23;;;;;;;2.03;0.93;;;15.70;99.90;;;;;;5055889;28;20538;-45
2022/05/24 11:09:56;;;;;;;3.10;1.15;;;15.60;99.90;;;;;;5049081;28;20056;-45
2022/05/24 11:12:24;;;;;;;4.15;1.55;;;15.70;99.90;;;;;;5076294;28;20060;-44
2022/05/24 11:14:54;;;;;;;2.65;1.45;;;15.80;99.90;;;;;;5052126;28;20094;-44
2022/05/24 11:17:21;;;;;;;4.82;1.75;;;16.00;99.90;;;;;;5072315;28;20052;-44
2022/05/24 11:19:50;;;;;;;3.22;1.50;;;16.00;99.90;;;;;;5073067;28;20056;-45
2022/05/24 11:22:21;;;;;;;5.25;1.80;;;16.10;99.90;;;;;;5075751;28;20592;-45
2022/05/24 11:24:51;;;;;;;2.35;1.67;;;16.10;99.90;;;;;;5081694;28;20075;-45
2022/05/24 11:27:23;;;;;;;8.63;1.80;;;16.10;99.90;;;;;;5078285;28;20048;-45
2022/05/24 11:29:51;;;;;;;6.28;1.60;;;16.20;99.90;;;;;;5052363;28;20055;-44
2022/05/24 11:32:30;;;;;;;4.90;1.88;;;16.10;99.90;;;;;;5067538;28;20059;-45
2022/05/24 11:34:59;;;;;;;2.95;1.20;;;16.20;99.90;;;;;;5041501;28;20044;-45
2022/05/24 11:37:27;;;;;;;4.45;1.30;;;16.10;99.90;;;;;;5053213;28;20044;-44
2022/05/24 11:39:54;;;;;;;2.55;1.20;;;16.10;99.90;;;;;;5053580;28;20089;-45
2022/05/24 11:42:24;;;;;;;2.63;1.00;;;16.00;99.90;;;;;;5062901;28;20482;-45
2022/05/24 11:44:51;;;;;;;4.25;1.13;;;16.00;99.90;;;;;;5070636;28;20041;-44
2022/05/24 11:47:55;;;;;;;3.42;0.95;;;16.00;99.90;;;;;;5067536;28;20168;-44
2022/05/24 11:50:42;;;;;;;3.70;1.33;;;16.10;99.90;;;;;;5053049;28;20464;-43
2022/05/24 11:53:09;;;;;;;2.65;1.20;;;16.10;99.90;;;;;;5071813;28;20076;-43
2022/05/24 11:55:50;;;;;;;2.95;1.40;;;16.10;99.90;;;;;;5072569;28;20048;-44
2022/05/24 11:58:41;;;;;;;3.30;1.40;;;16.20;99.90;;;;;;5071644;28;20052;-44
2022/05/24 12:01:10;;;;;;;5.82;1.40;;;16.40;99.90;;;;;;5040300;28;20083;-44
2022/05/24 12:09:15;;;;;;;4.45;1.35;;;16.40;99.90;;;;;;5053873;28;20057;-43
2022/05/24 12:11:41;;;;;;;2.67;1.27;;;16.50;99.90;;;;;;5070008;28;20052;-43
2022/05/24 12:14:14;;;;;;;2.17;1.30;;;16.60;99.90;;;;;;5071736;28;20520;-44
2022/05/24 12:17:03;;;;;;;2.20;1.25;;;16.70;99.90;;;;;;5053871;28;20052;-43
2022/05/24 12:19:51;;;;;;;3.47;1.40;;;16.80;99.90;;;;;;5052431;28;20052;-44
2022/05/24 12:22:20;;;;;;;3.28;1.48;;;17.10;99.90;;;;;;5044308;28;20127;-44
2022/05/24 12:24:52;;;;;;;4.18;1.67;;;17.30;99.90;;;;;;5071416;28;20059;-43
2022/05/24 12:27:42;;;;;;;2.75;1.20;;;17.50;99.90;;;;;;5053926;28;20052;-43
2022/05/24 12:30:39;;;;;;;3.35;1.30;;;17.70;99.90;;;;;;5070551;28;20499;-43
2022/05/24 12:33:18;;;;;;;3.00;1.35;;;18.00;99.90;;;;;;5057453;28;20131;-43
2022/05/24 12:35:56;;;;;;;4.28;1.52;;;18.10;99.90;;;;;;5052771;28;20110;-43
2022/05/24 12:38:27;;;;;;;5.18;1.52;;;18.00;99.10;;;;;;5071298;28;20135;-43
2022/05/24 12:41:06;;;;;;;4.35;1.00;;;17.90;98.60;;;;;;5062690;28;20070;-43
2022/05/24 12:43:33;;;;;;;4.93;0.90;;;17.70;97.00;;;;;;5070909;28;20448;-43
2022/05/24 12:46:00;;;;;;;3.65;0.70;;;17.40;98.00;;;;;;5070628;28;20044;-44
2022/05/24 12:48:34;;;;;;;3.10;0.50;;;17.10;97.50;;;;;;5090539;28;20437;-44
2022/05/24 12:51:01;;;;;;;1.88;0.70;;;17.00;97.20;;;;;;5084812;28;20400;-44
2022/05/24 12:53:29;;;;;;;2.65;0.63;;;16.90;97.10;;;;;;5049975;28;20055;-44
2022/05/24 12:55:58;;;;;;;1.30;0.55;;;16.80;97.00;;;;;;5073953;28;20048;-42
2022/05/24 12:58:31;;;;;;;3.13;0.93;;;16.70;97.10;;;;;;5047264;28;20380;-43
2022/05/24 13:01:22;;;;;;;2.20;0.70;;;16.70;97.40;;;;;;5071337;28;20131;-43
2022/05/24 13:04:08;;;;;;;6.10;0.95;;;16.70;96.90;;;;;;5070621;28;20211;-44
2022/05/24 13:06:35;;;;;;;3.58;0.90;;;16.60;97.00;;;;;;5051992;28;20066;-43
2022/05/24 13:09:15;;;;;;;3.80;1.10;;;16.50;97.30;;;;;;5042816;28;20049;-43
2022/05/24 13:11:42;;;;;;;2.30;0.77;;;16.50;97.50;;;;;;5069394;28;20041;-44
2022/05/24 13:14:11;;;;;;;5.68;1.35;;;16.50;97.60;;;;;;5053433;28;20036;-44
2022/05/24 13:16:39;;;;;;;5.95;1.33;;;16.60;97.70;;;;;;5048207;28;20090;-42
2022/05/24 13:19:05;;;;;;;3.97;1.25;;;16.70;97.60;;;;;;5054356;28;20102;-43
2022/05/24 13:21:34;;;;;;;4.22;1.27;;;16.80;97.70;;;;;;5074124;28;20048;-44